createdAt,value
2019-04-05T00:00:24.551Z,141.63
2019-04-05T00:02:56.320Z,135.68
2019-04-05T00:05:28.003Z,136.20
2019-04-05T00:08:00.360Z,147.47
2019-04-05T00:10:32.122Z,147.37
2019-04-05T00:13:04.069Z,138.50
2019-04-05T00:15:38.018Z,133.70
2019-04-05T00:18:08.748Z,152.57
2019-04-05T00:20:41.410Z,159.40
2019-04-05T00:23:13.078Z,172.60
2019-04-05T00:25:44.813Z,170.60
2019-04-05T00:28:16.619Z,164.33
2019-04-05T00:30:48.450Z,165.50
2019-04-05T00:33:19.996Z,181.43
2019-04-05T00:35:51.458Z,168.77
2019-04-05T00:38:23.231Z,168.13
2019-04-05T00:40:56.010Z,176.60
2019-04-05T00:43:27.752Z,180.33
2019-04-05T00:45:59.242Z,183.63
2019-04-05T00:48:30.991Z,174.63
2019-04-05T00:51:02.741Z,166.80
2019-04-05T00:53:34.506Z,171.63
2019-04-05T00:56:06.048Z,176.40
2019-04-05T00:58:38.020Z,189.53
2019-04-05T01:01:09.580Z,187.13
2019-04-05T01:03:41.447Z,190.87
2019-04-05T01:06:12.973Z,205.97
2019-04-05T01:08:44.973Z,198.33
2019-04-05T01:11:16.828Z,190.93
2019-04-05T01:13:48.717Z,189.87
2019-04-05T01:16:20.272Z,190.60
2019-04-05T01:18:52.694Z,193.87
2019-04-05T01:21:24.291Z,196.83
2019-04-05T01:23:56.128Z,200.77
2019-04-05T01:26:27.795Z,186.07
2019-04-05T01:28:59.339Z,182.57
2019-04-05T01:31:30.791Z,174.97
2019-04-05T01:34:05.379Z,157.63
2019-04-05T01:36:35.744Z,151.87
2019-04-05T01:39:07.308Z,157.30
2019-04-05T01:41:39.062Z,160.83
2019-04-05T01:44:10.688Z,159.17
2019-04-05T01:46:43.187Z,152.43
2019-04-05T01:49:14.867Z,139.93
2019-04-05T01:51:46.704Z,139.67
2019-04-05T01:54:18.363Z,146.23
2019-04-05T01:56:50.037Z,116.83
2019-04-05T01:59:21.894Z,124.80
2019-04-05T02:01:53.331Z,126.27
2019-04-05T02:04:24.908Z,130.73
2019-04-05T02:06:56.442Z,122.60
2019-04-05T02:09:28.201Z,126.60
2019-04-05T02:11:59.877Z,115.43
2019-04-05T02:14:31.622Z,111.90
2019-04-05T02:17:03.302Z,112.80
2019-04-05T02:19:34.759Z,108.97
2019-04-05T02:22:06.509Z,104.73
2019-04-05T02:24:38.280Z,113.67
2019-04-05T02:27:09.827Z,112.57
2019-04-05T02:29:41.673Z,116.00
2019-04-05T02:32:14.286Z,104.67
2019-04-05T02:34:46.214Z,105.23
2019-04-05T02:37:17.698Z,117.00
2019-04-05T02:39:49.641Z,107.53
2019-04-05T02:42:21.525Z,105.10
2019-04-05T02:44:52.978Z,117.90
2019-04-05T02:47:24.939Z,114.83
2019-04-05T02:49:57.284Z,116.97
2019-04-05T02:52:29.148Z,116.93
2019-04-05T02:55:00.821Z,105.90
2019-04-05T02:57:32.501Z,123.13
2019-04-05T03:00:04.965Z,148.10
2019-04-05T03:02:36.602Z,147.23
2019-04-05T03:05:08.247Z,143.10
2019-04-05T03:07:39.924Z,142.37
2019-04-05T03:10:14.536Z,137.90
2019-04-05T03:12:46.825Z,130.80
2019-04-05T03:15:18.586Z,127.10
2019-04-05T03:17:50.447Z,137.70
2019-04-05T03:20:21.925Z,131.70
2019-04-05T03:22:53.749Z,133.80
2019-04-05T03:25:25.428Z,124.20
2019-04-05T03:27:57.180Z,114.30
2019-04-05T03:30:28.526Z,133.70
2019-04-05T03:33:00.465Z,124.17
2019-04-05T03:35:32.051Z,135.37
2019-04-05T03:38:03.589Z,141.80
2019-04-05T03:40:35.556Z,148.43
2019-04-05T03:43:07.434Z,141.03
2019-04-05T03:45:39.478Z,139.93
2019-04-05T03:48:11.085Z,139.77
2019-04-05T03:50:45.059Z,135.03
2019-04-05T03:53:16.116Z,143.83
2019-04-05T03:55:47.871Z,146.00
2019-04-05T03:58:19.305Z,157.67
2019-04-05T04:00:50.969Z,147.57
2019-04-05T04:03:22.718Z,152.60
2019-04-05T04:06:02.491Z,147.53
2019-04-05T04:08:34.039Z,141.50
2019-04-05T04:11:05.782Z,141.50
2019-04-05T04:13:37.251Z,143.90
2019-04-05T04:16:08.918Z,137.67
2019-04-05T04:18:40.767Z,164.67
2019-04-05T04:21:32.302Z,145.47
2019-04-05T04:24:06.025Z,155.53
2019-04-05T04:26:38.904Z,143.03
2019-04-05T04:29:10.744Z,140.23
2019-04-05T04:31:42.406Z,144.23
2019-04-05T04:34:14.169Z,152.83
2019-04-05T04:36:46.019Z,138.83
2019-04-05T04:39:17.900Z,144.90
2019-04-05T04:41:49.644Z,131.73
2019-04-05T04:44:20.994Z,134.17
2019-04-05T04:46:54.495Z,130.23
2019-04-05T04:49:26.354Z,130.80
2019-04-05T04:51:57.886Z,142.87
2019-04-05T04:54:29.352Z,155.67
2019-04-05T04:57:01.322Z,147.07
2019-04-05T04:59:33.171Z,152.80
2019-04-05T05:02:05.151Z,155.27
2019-04-05T05:04:36.691Z,156.10
2019-04-05T05:07:08.767Z,175.77
2019-04-05T05:09:40.202Z,164.20
2019-04-05T05:12:12.082Z,154.47
2019-04-05T05:14:43.838Z,171.60
2019-04-05T05:17:15.279Z,151.43
2019-04-05T05:19:47.178Z,155.73
2019-04-05T05:22:18.998Z,144.37
2019-04-05T05:24:50.470Z,135.47
2019-04-05T05:27:22.130Z,132.43
2019-04-05T05:29:54.163Z,133.50
2019-04-05T05:32:25.784Z,129.40
2019-04-05T05:35:02.203Z,117.87
2019-04-05T05:37:32.795Z,118.93
2019-04-05T05:40:07.665Z,121.33
2019-04-05T05:42:39.137Z,121.43
2019-04-05T05:45:10.879Z,113.97
2019-04-05T05:47:51.579Z,118.30
2019-04-05T05:50:15.647Z,115.80
2019-04-05T05:52:48.107Z,118.83
2019-04-05T05:55:19.660Z,133.23
2019-04-05T05:57:54.356Z,126.63
2019-04-05T06:00:25.041Z,118.63
2019-04-05T06:02:56.886Z,124.67
2019-04-05T06:05:28.961Z,125.63
2019-04-05T06:08:00.999Z,117.97
2019-04-05T06:10:33.310Z,120.70
2019-04-05T06:13:07.067Z,127.63
2019-04-05T06:15:37.845Z,128.70
2019-04-05T06:18:11.858Z,120.97
2019-04-05T06:20:43.316Z,124.90
2019-04-05T06:23:15.094Z,136.83
2019-04-05T06:25:47.127Z,120.77
2019-04-05T06:28:18.946Z,125.53
2019-04-05T06:30:50.866Z,124.60
2019-04-05T06:33:31.465Z,132.30
2019-04-05T06:35:56.033Z,134.45
2019-04-05T06:38:28.602Z,135.93
2019-04-05T06:41:00.369Z,128.95
2019-04-05T06:43:31.798Z,130.40
2019-04-05T06:46:03.754Z,136.50
2019-04-05T06:48:35.435Z,145.45
2019-04-05T06:51:07.073Z,131.45
2019-04-05T06:53:38.951Z,137.60
2019-04-05T06:56:10.385Z,134.63
2019-04-05T06:58:42.411Z,142.35
2019-04-05T07:01:14.260Z,130.67
2019-04-05T07:03:45.643Z,137.30
2019-04-05T07:06:17.547Z,130.95
2019-04-05T07:08:54.035Z,134.72
2019-04-05T07:11:22.704Z,119.45
2019-04-05T07:13:55.621Z,109.27
2019-04-05T07:16:27.432Z,92.42
2019-04-05T07:18:59.314Z,75.78
2019-04-05T07:21:31.196Z,61.20
2019-04-05T07:24:02.935Z,91.75
2019-04-05T07:26:35.387Z,87.17
2019-04-05T07:29:07.054Z,86.80
2019-04-05T07:31:38.489Z,95.97
2019-04-05T07:34:10.155Z,95.15
2019-04-05T07:36:41.726Z,82.67
2019-04-05T07:39:13.575Z,90.75
2019-04-05T07:41:45.830Z,84.90
2019-04-05T07:44:17.414Z,89.07
2019-04-05T07:46:49.077Z,90.55
2019-04-05T07:49:20.922Z,101.18
2019-04-05T07:51:52.902Z,95.47
2019-04-05T07:54:24.357Z,91.12
2019-04-05T07:56:56.113Z,84.52
2019-04-05T07:59:27.751Z,90.60
2019-04-05T08:01:59.675Z,88.25
2019-04-05T08:04:31.187Z,85.77
2019-04-05T08:07:03.683Z,85.47
2019-04-05T08:09:35.434Z,80.67
2019-04-05T08:12:07.162Z,79.20
2019-04-05T08:14:38.731Z,82.67
2019-04-05T08:17:10.375Z,77.85
2019-04-05T08:19:41.846Z,79.58
2019-04-05T08:22:13.296Z,71.77
2019-04-05T08:24:45.268Z,66.75
2019-04-05T08:27:16.659Z,76.12
2019-04-05T08:29:48.574Z,70.28
2019-04-05T08:32:20.130Z,61.23
2019-04-05T08:34:51.686Z,67.00
2019-04-05T08:37:23.531Z,59.23
2019-04-05T08:39:55.710Z,53.60
2019-04-05T08:42:28.192Z,53.85
2019-04-05T08:45:00.559Z,57.23
2019-04-05T08:47:32.115Z,52.15
2019-04-05T08:50:04.777Z,33.83
2019-04-05T08:52:36.220Z,35.55
2019-04-05T08:55:08.218Z,32.23
2019-04-05T08:57:39.982Z,38.63
2019-04-05T09:00:11.740Z,38.90
2019-04-05T09:02:43.501Z,42.70
2019-04-05T09:05:15.257Z,37.42
2019-04-05T09:07:46.912Z,42.23
2019-04-05T09:10:18.362Z,42.00
2019-04-05T09:12:50.925Z,39.15
2019-04-05T09:15:22.477Z,40.43
2019-04-05T09:17:54.155Z,39.63
2019-04-05T09:20:25.607Z,33.25
2019-04-05T09:22:57.368Z,36.25
2019-04-05T09:25:29.112Z,34.85
2019-04-05T09:28:00.903Z,39.80
2019-04-05T09:30:32.644Z,38.30
2019-04-05T09:33:04.080Z,35.85
2019-04-05T09:35:36.657Z,38.00
2019-04-05T09:38:08.444Z,37.95
2019-04-05T09:40:41.860Z,35.28
2019-04-05T09:43:13.235Z,35.70
2019-04-05T09:45:45.153Z,31.62
2019-04-05T09:48:17.114Z,31.30
2019-04-05T09:50:48.670Z,35.40
2019-04-05T09:53:20.531Z,32.53
2019-04-05T09:55:52.006Z,31.35
2019-04-05T09:58:23.732Z,33.30
2019-04-05T10:00:57.043Z,34.75
2019-04-05T10:03:28.787Z,30.45
2019-04-05T10:06:02.002Z,27.05
2019-04-05T10:08:33.733Z,31.35
2019-04-05T10:11:05.204Z,29.10
2019-04-05T10:13:37.562Z,30.32
2019-04-05T10:16:09.349Z,30.88
2019-04-05T10:18:41.202Z,34.95
2019-04-05T10:21:12.852Z,33.95
2019-04-05T10:23:44.701Z,34.92
2019-04-05T10:26:16.373Z,35.35
2019-04-05T10:28:47.894Z,29.80
2019-04-05T10:31:19.490Z,27.67
2019-04-05T10:33:51.441Z,29.60
2019-04-05T10:36:23.212Z,31.37
2019-04-05T10:38:54.697Z,30.60
2019-04-05T10:41:26.407Z,34.08
2019-04-05T10:43:58.485Z,28.80
2019-04-05T10:46:30.143Z,32.80
2019-04-05T10:49:01.581Z,27.98
2019-04-05T10:51:33.355Z,26.87
2019-04-05T10:54:04.905Z,29.18
2019-04-05T10:56:36.667Z,28.02
2019-04-05T10:59:08.738Z,24.45
2019-04-05T11:01:40.169Z,26.82
2019-04-05T11:04:11.719Z,30.37
2019-04-05T11:06:44.692Z,28.65
2019-04-05T11:09:16.183Z,25.80
2019-04-05T11:11:47.638Z,28.32
2019-04-05T11:14:19.188Z,24.65
2019-04-05T11:16:58.201Z,21.37
2019-04-05T11:19:23.719Z,20.35
2019-04-05T11:21:55.377Z,22.35
2019-04-05T11:24:26.744Z,20.88
2019-04-05T11:26:58.400Z,21.52
2019-04-05T11:29:30.068Z,20.80
2019-04-05T11:32:01.806Z,18.75
2019-04-05T11:34:33.362Z,18.92
2019-04-05T11:37:05.137Z,25.97
2019-04-05T11:39:36.901Z,20.80
2019-04-05T11:42:08.765Z,22.32
2019-04-05T11:44:40.216Z,25.35
2019-04-05T11:47:11.884Z,21.23
2019-04-05T11:49:43.632Z,21.15
2019-04-05T11:52:15.260Z,20.72
2019-04-05T11:54:47.360Z,21.33
2019-04-05T11:57:18.815Z,19.07
2019-04-05T11:59:50.625Z,22.05
2019-04-05T12:02:23.895Z,21.50
2019-04-05T12:04:57.261Z,20.23
2019-04-05T12:07:29.119Z,23.60
2019-04-05T12:10:00.578Z,23.15
2019-04-05T12:12:31.901Z,27.75
2019-04-05T12:15:06.464Z,20.00
2019-04-05T12:17:38.495Z,28.00
2019-04-05T12:20:13.430Z,33.48
2019-04-05T12:22:44.999Z,20.23
2019-04-05T12:25:16.766Z,23.02
2019-04-05T12:27:48.505Z,23.42
2019-04-05T12:30:26.941Z,24.75
2019-04-05T12:32:58.481Z,22.02
2019-04-05T12:35:30.253Z,20.32
2019-04-05T12:38:01.709Z,23.45
2019-04-05T12:40:33.475Z,27.15
2019-04-05T12:43:05.107Z,20.72
2019-04-05T12:45:36.769Z,21.73
2019-04-05T12:48:08.239Z,27.17
2019-04-05T12:50:44.721Z,22.77
2019-04-05T12:53:14.214Z,24.53
2019-04-05T12:55:45.875Z,25.02
2019-04-05T12:58:18.022Z,22.80
2019-04-05T13:00:49.898Z,23.42
2019-04-05T13:03:21.469Z,20.82
2019-04-05T13:05:52.991Z,24.12
2019-04-05T13:08:24.674Z,23.47
2019-04-05T13:10:57.022Z,23.77
2019-04-05T13:13:28.603Z,23.52
2019-04-05T13:16:00.498Z,23.98
2019-04-05T13:18:32.417Z,23.45
2019-04-05T13:21:14.449Z,25.82
2019-04-05T13:23:37.463Z,23.80
2019-04-05T13:26:11.460Z,25.97
2019-04-05T13:28:42.543Z,24.40
2019-04-05T13:31:18.283Z,22.17
2019-04-05T13:33:48.520Z,23.17
2019-04-05T13:36:19.959Z,26.42
2019-04-05T13:38:54.979Z,24.95
2019-04-05T13:41:24.850Z,28.02
2019-04-05T13:43:56.489Z,31.87
2019-04-05T13:46:28.359Z,30.35
2019-04-05T13:48:59.772Z,29.30
2019-04-05T13:51:32.115Z,30.50
2019-04-05T13:54:03.624Z,29.85
2019-04-05T13:56:35.284Z,33.85
2019-04-05T13:59:07.744Z,32.30
2019-04-05T14:01:39.425Z,28.85
2019-04-05T14:04:12.407Z,29.60
2019-04-05T14:06:44.265Z,30.17
2019-04-05T14:09:16.030Z,29.67
2019-04-05T14:11:47.562Z,35.75
2019-04-05T14:14:19.134Z,35.15
2019-04-05T14:16:53.868Z,32.35
2019-04-05T14:19:24.113Z,33.58
2019-04-05T14:22:07.797Z,31.75
2019-04-05T14:24:29.149Z,32.48
2019-04-05T14:27:02.950Z,35.58
2019-04-05T14:29:33.895Z,30.70
2019-04-05T14:32:20.014Z,36.63
2019-04-05T14:34:39.252Z,31.77
2019-04-05T14:37:11.005Z,35.63
2019-04-05T14:39:42.869Z,35.92
2019-04-05T14:42:15.650Z,35.35
2019-04-05T14:44:47.190Z,36.95
2019-04-05T14:47:19.933Z,31.85
2019-04-05T14:49:51.543Z,73.55
2019-04-05T14:52:25.506Z,36.58
2019-04-05T14:54:57.770Z,32.85
2019-04-05T14:57:29.467Z,33.93
2019-04-05T15:00:00.936Z,34.20
2019-04-05T15:02:32.767Z,34.78
2019-04-05T15:05:06.112Z,32.90
2019-04-05T15:10:09.516Z,32.17
2019-04-05T15:12:41.577Z,35.50
2019-04-05T15:15:13.027Z,57.35
2019-04-05T15:17:48.166Z,47.13
2019-04-05T15:20:18.085Z,203.98
2019-04-05T15:22:49.843Z,70.30
2019-04-05T15:25:21.995Z,47.53
2019-04-05T15:27:55.530Z,41.75
2019-04-05T15:30:26.765Z,76.37
2019-04-05T15:33:00.041Z,46.55
2019-04-05T15:35:31.919Z,48.08
2019-04-05T15:38:03.556Z,34.55
2019-04-05T15:40:35.136Z,37.33
2019-04-05T15:43:06.990Z,33.67
2019-04-05T15:45:38.642Z,39.42
2019-04-05T15:48:09.993Z,41.95
2019-04-05T15:50:41.850Z,36.58
2019-04-05T15:53:13.626Z,41.02
2019-04-05T15:55:45.295Z,30.72
2019-04-05T15:58:16.837Z,39.20
2019-04-05T16:00:49.616Z,35.55
2019-04-05T16:03:21.385Z,34.40
2019-04-05T16:05:53.146Z,46.65
2019-04-05T16:08:24.831Z,39.53
2019-04-05T16:10:58.294Z,34.48
2019-04-05T16:13:30.165Z,34.38
2019-04-05T16:16:01.720Z,38.30
2019-04-05T16:18:33.582Z,52.78
2019-04-05T16:21:05.339Z,38.88
2019-04-05T16:23:37.101Z,34.18
2019-04-05T16:26:09.066Z,30.50
2019-04-05T16:28:41.188Z,31.52
2019-04-05T16:31:12.790Z,32.35
2019-04-05T16:33:44.347Z,34.35
2019-04-05T16:36:15.900Z,32.53
2019-04-05T16:38:47.437Z,35.55
2019-04-05T16:41:19.091Z,36.30
2019-04-05T16:43:51.681Z,39.40
2019-04-05T16:46:23.549Z,33.63
2019-04-05T16:48:55.109Z,37.98
2019-04-05T16:51:26.654Z,45.98
2019-04-05T16:54:04.238Z,37.65
2019-04-05T16:56:36.214Z,44.73
2019-04-05T16:59:07.772Z,47.40
2019-04-05T17:01:39.512Z,41.60
2019-04-05T17:04:11.088Z,41.85
2019-04-05T17:06:43.813Z,46.85
2019-04-05T17:09:15.422Z,44.18
2019-04-05T17:11:47.064Z,44.20
2019-04-05T17:14:18.845Z,64.07
2019-04-05T17:16:50.905Z,60.88
2019-04-05T17:19:22.560Z,72.75
2019-04-05T17:21:54.312Z,89.40
2019-04-05T17:24:26.580Z,106.10
2019-04-05T17:26:58.135Z,107.17
2019-04-05T17:29:29.585Z,111.80
2019-04-05T17:32:01.140Z,89.07
2019-04-05T17:34:33.332Z,83.67
2019-04-05T17:37:04.776Z,95.87
2019-04-05T17:39:36.110Z,92.82
2019-04-05T17:42:07.987Z,72.70
2019-04-05T17:44:39.746Z,74.30
2019-04-05T17:47:11.179Z,69.25
2019-04-05T17:49:42.956Z,78.35
2019-04-05T17:52:14.816Z,76.75
2019-04-05T17:54:46.679Z,69.30
2019-04-05T17:57:18.218Z,70.92
2019-04-05T17:59:49.830Z,83.55
2019-04-05T18:02:22.984Z,76.62
2019-04-05T18:04:54.542Z,64.15
2019-04-05T18:07:27.264Z,47.33
2019-04-05T18:09:59.291Z,53.90
2019-04-05T18:12:30.825Z,56.55
2019-04-05T18:15:02.598Z,60.08
2019-04-05T18:17:55.252Z,73.70
2019-04-05T18:20:26.718Z,71.57
2019-04-05T18:22:58.655Z,68.00
2019-04-05T18:25:30.326Z,82.42
2019-04-05T18:28:01.884Z,93.58
2019-04-05T18:30:33.508Z,103.90
2019-04-05T18:33:05.180Z,116.37
2019-04-05T18:35:37.063Z,127.27
2019-04-05T18:38:08.624Z,106.50
2019-04-05T18:40:40.637Z,115.88
2019-04-05T18:43:12.241Z,108.87
2019-04-05T18:45:43.900Z,97.27
2019-04-05T18:48:15.652Z,95.22
2019-04-05T18:50:48.703Z,139.90
2019-04-05T18:53:20.306Z,135.72
2019-04-05T18:55:51.862Z,137.10
2019-04-05T18:58:23.527Z,135.00
2019-04-05T19:00:55.071Z,133.75
2019-04-05T19:03:26.531Z,138.05
2019-04-05T19:05:58.574Z,130.43
2019-04-05T19:08:39.518Z,139.85
2019-04-05T19:11:03.246Z,213.60
2019-04-05T19:13:34.802Z,220.10
2019-04-05T19:16:06.319Z,174.87
2019-04-05T19:18:38.546Z,171.25
2019-04-05T19:21:10.264Z,157.15
2019-04-05T19:23:50.686Z,163.63
2019-04-05T19:26:14.913Z,162.90
2019-04-05T19:28:46.491Z,151.15
2019-04-05T19:49:14.081Z,183.23
2019-04-05T19:51:45.941Z,178.60
2019-04-05T19:54:19.041Z,186.70
2019-04-05T19:56:50.736Z,199.83
2019-04-05T19:59:22.457Z,185.03
2019-04-05T20:01:54.309Z,143.97
2019-04-05T20:04:27.995Z,143.80
2019-04-05T20:07:00.104Z,146.32
2019-04-05T20:09:31.670Z,144.83
2019-04-05T20:12:03.494Z,152.93
2019-04-05T20:14:35.026Z,137.70
2019-04-05T20:17:07.007Z,148.77
2019-04-05T20:19:38.667Z,161.37
2019-04-05T20:22:10.588Z,152.07
2019-04-05T20:24:42.182Z,158.87
2019-04-05T20:27:13.944Z,174.47
2019-04-05T20:29:45.383Z,132.00
2019-04-05T20:32:17.273Z,125.13
2019-04-05T20:34:49.258Z,152.27
2019-04-05T20:37:20.861Z,171.83
2019-04-05T20:39:53.844Z,170.53
2019-04-05T20:42:25.360Z,153.90
2019-04-05T20:44:57.177Z,160.03
2019-04-05T20:47:28.920Z,156.23
2019-04-05T20:50:00.509Z,153.57
2019-04-05T20:52:32.220Z,143.13
2019-04-05T20:55:06.697Z,142.20
2019-04-05T20:57:38.132Z,143.87
2019-04-05T21:00:10.645Z,155.93
2019-04-05T21:02:43.593Z,156.10
2019-04-05T21:05:24.808Z,181.77
2019-04-05T21:07:48.748Z,188.97
2019-04-05T21:10:20.401Z,163.70
2019-04-05T21:12:52.262Z,143.00
2019-04-05T21:15:23.936Z,149.90
2019-04-05T21:17:55.681Z,149.10
2019-04-05T21:20:27.336Z,149.33
2019-04-05T21:22:59.107Z,133.83
2019-04-05T21:25:30.863Z,127.10
2019-04-05T21:28:02.589Z,107.97
2019-04-05T21:30:34.267Z,116.97
2019-04-05T21:33:05.834Z,117.87
2019-04-05T21:35:37.493Z,103.37
2019-04-05T21:38:09.353Z,109.67
2019-04-05T21:40:40.880Z,111.67
2019-04-05T21:43:12.565Z,115.47
2019-04-05T21:45:44.323Z,129.57
2019-04-05T21:48:16.080Z,123.83
2019-04-05T21:50:48.046Z,127.80
2019-04-05T21:53:20.112Z,121.10
2019-04-05T21:55:51.955Z,115.87
2019-04-05T21:58:25.969Z,103.27
2019-04-05T22:01:02.969Z,88.87
2019-04-05T22:03:36.981Z,110.70
2019-04-05T22:06:08.656Z,91.53
2019-04-05T22:08:40.705Z,100.53
2019-04-05T22:11:12.565Z,110.67
2019-04-05T22:13:44.241Z,107.70
2019-04-05T22:16:16.059Z,109.07
2019-04-05T22:18:48.171Z,116.67
2019-04-05T22:21:20.019Z,113.03
2019-04-05T22:23:52.619Z,117.00
2019-04-05T22:26:24.236Z,102.83
2019-04-05T22:28:56.300Z,107.30
2019-04-05T22:31:28.074Z,108.40
2019-04-05T22:34:00.063Z,108.40
2019-04-05T22:36:31.711Z,146.63
2019-04-05T22:39:04.365Z,149.17
2019-04-05T22:41:36.802Z,153.00
2019-04-05T22:44:08.838Z,114.53
2019-04-05T22:46:40.905Z,102.37
2019-04-05T22:49:13.689Z,97.10
2019-04-05T22:51:45.317Z,94.67
2019-04-05T22:54:17.314Z,93.67
2019-04-05T22:56:49.146Z,96.10
2019-04-05T22:59:21.046Z,101.30
2019-04-05T23:01:52.983Z,118.73
2019-04-05T23:04:24.972Z,129.67
2019-04-05T23:06:56.800Z,183.37
2019-04-05T23:09:29.108Z,171.37
2019-04-05T23:12:00.701Z,222.83
2019-04-05T23:14:32.741Z,192.87
2019-04-05T23:17:04.671Z,195.43
2019-04-05T23:19:36.570Z,181.00
2019-04-05T23:22:08.414Z,173.43
2019-04-05T23:24:40.143Z,172.57
2019-04-05T23:27:12.047Z,177.50
2019-04-05T23:29:44.072Z,174.27
2019-04-05T23:32:16.078Z,174.20
2019-04-05T23:34:47.649Z,168.93
2019-04-05T23:37:19.802Z,180.73
2019-04-05T23:39:51.767Z,171.50
2019-04-05T23:42:24.273Z,189.43
2019-04-05T23:44:56.414Z,186.33
2019-04-05T23:47:29.274Z,172.20
2019-04-05T23:50:01.419Z,174.17
2019-04-05T23:52:34.116Z,168.60
2019-04-05T23:55:07.889Z,177.23
2019-04-05T23:57:40.195Z,174.20
